Time;durP1;ratioP1;P1;durP2;ratioP2;P2;SDS_P1;SDS_P2;PMS_P1;PMS_P2;Temp;Humidity;BMP_temperature;BMP_pressure;BME280_temperature;BME280_humidity;BME280_pressure;Samples;Min_cycle;Max_cycle;Signal;HPM_P1;HPM_P2
2022/12/03 00:01:14;;;;;;;8.88;3.35;;;;;;;19.57;48.21;101338.16;5096868;28;20059;-81
2022/12/03 00:03:42;;;;;;;4.22;3.28;;;;;;;19.56;47.88;101333.75;5096473;28;20048;-80
2022/12/03 00:06:10;;;;;;;6.68;3.65;;;;;;;19.57;48.22;101331.91;5096501;28;20052;-80
2022/12/03 00:08:37;;;;;;;4.10;3.20;;;;;;;19.57;47.92;101332.78;5095103;28;20055;-80
2022/12/03 00:11:04;;;;;;;5.03;3.38;;;;;;;19.57;47.83;101337.28;5094744;28;20064;-80
2022/12/03 00:13:32;;;;;;;4.95;3.60;;;;;;;19.55;47.96;101332.03;5095773;28;20396;-80
2022/12/03 00:15:59;;;;;;;5.05;3.20;;;;;;;19.55;47.95;101325.81;5095737;28;20491;-80
2022/12/03 00:18:26;;;;;;;4.13;2.78;;;;;;;19.56;47.90;101336.44;5096345;28;20048;-80
2022/12/03 00:20:54;;;;;;;3.65;2.90;;;;;;;19.55;48.02;101336.56;5096828;28;20070;-80
2022/12/03 00:23:21;;;;;;;4.60;3.25;;;;;;;19.54;47.79;101330.34;5077788;28;20052;-80
2022/12/03 00:25:48;;;;;;;5.85;2.90;;;;;;;19.54;47.85;101333.03;5094571;28;20056;-80
2022/12/03 00:28:16;;;;;;;4.07;3.00;;;;;;;19.54;47.85;101327.66;5096806;28;20048;-80
2022/12/03 00:30:43;;;;;;;3.70;2.97;;;;;;;19.53;47.91;101325.94;5095310;28;20415;-80
2022/12/03 00:33:10;;;;;;;5.57;3.38;;;;;;;19.53;47.83;101328.63;5096135;28;20040;-79
2022/12/03 00:35:38;;;;;;;4.70;2.97;;;;;;;19.53;47.74;101331.31;5094157;28;20048;-80
2022/12/03 00:38:05;;;;;;;4.22;2.90;;;;;;;19.51;47.70;101323.38;5096349;28;20102;-80
2022/12/03 00:40:33;;;;;;;3.97;3.17;;;;;;;19.52;47.62;101327.75;5095977;28;20048;-80
2022/12/03 00:43:01;;;;;;;4.68;3.13;;;;;;;19.51;47.64;101326.06;5096063;28;20040;-80
2022/12/03 00:45:28;;;;;;;6.05;3.35;;;;;;;19.51;47.67;101327.88;5096257;28;20047;-79
2022/12/03 00:47:56;;;;;;;3.92;3.05;;;;;;;19.51;47.64;101326.06;5096025;28;20051;-80
2022/12/03 00:50:23;;;;;;;5.47;3.10;;;;;;;19.51;47.96;101325.19;5096248;28;20067;-80
2022/12/03 00:52:51;;;;;;;3.78;3.20;;;;;;;19.50;47.46;101329.72;5095593;28;20039;-80
2022/12/03 00:55:18;;;;;;;5.55;3.55;;;;;;;19.51;47.60;101330.56;5094879;28;20055;-80
2022/12/03 00:57:46;;;;;;;5.30;2.70;;;;;;;19.51;47.74;101327.88;5095747;28;20048;-80
2022/12/03 01:00:14;;;;;;;4.72;3.05;;;;;;;19.50;47.96;101337.78;5096715;28;20055;-80
2022/12/03 01:02:41;;;;;;;5.45;3.30;;;;;;;19.51;47.75;101330.56;5095876;28;20048;-80
2022/12/03 01:05:08;;;;;;;4.30;2.72;;;;;;;19.50;47.73;101332.41;5094123;28;20040;-80
2022/12/03 01:07:36;;;;;;;6.20;3.13;;;;;;;19.49;47.73;101333.38;5096046;28;20051;-80
2022/12/03 01:10:04;;;;;;;4.72;2.67;;;;;;;19.51;47.75;101338.63;5095775;28;20383;-79
2022/12/03 01:12:31;;;;;;;4.57;2.70;;;;;;;19.50;47.52;101331.56;5095291;28;20040;-80
2022/12/03 01:14:58;;;;;;;4.13;3.05;;;;;;;19.50;47.71;101331.56;5096055;28;20051;-80
2022/12/03 01:17:26;;;;;;;4.53;3.42;;;;;;;19.49;47.77;101335.22;5095721;28;20048;-79
2022/12/03 01:19:53;;;;;;;4.45;2.97;;;;;;;19.50;47.94;101334.25;5094859;28;20048;-78
2022/12/03 01:22:21;;;;;;;4.75;2.83;;;;;;;19.49;48.01;101333.38;5093832;28;20094;-78
2022/12/03 01:24:48;;;;;;;3.70;2.35;;;;;;;19.49;47.75;101332.53;5095388;28;20048;-78
2022/12/03 01:27:16;;;;;;;4.75;2.97;;;;;;;19.48;47.93;101328.13;5094922;28;20052;-78
2022/12/03 01:29:43;;;;;;;4.03;2.75;;;;;;;19.48;48.09;101323.59;5094285;28;20526;-78
2022/12/03 01:32:17;;;;;;;3.60;2.78;;;;;;;19.48;47.91;101328.97;5094906;28;20051;-78
2022/12/03 01:34:47;;;;;;;4.22;2.95;;;;;;;19.48;48.12;101326.28;5095491;28;20055;-78
2022/12/03 01:37:15;;;;;;;3.78;2.60;;;;;;;19.48;48.09;101320.06;5093813;28;20063;-78
2022/12/03 01:39:43;;;;;;;4.05;3.00;;;;;;;19.48;48.09;101325.44;5095541;28;20048;-78
2022/12/03 01:42:16;;;;;;;3.58;2.53;;;;;;;19.47;48.11;101319.22;5093809;28;20048;-79
2022/12/03 01:44:44;;;;;;;4.30;3.00;;;;;;;19.48;48.16;101322.75;5096169;28;20051;-79
2022/12/03 01:47:18;;;;;;;4.95;2.92;;;;;;;19.48;48.02;101322.75;5093694;28;20057;-79
2022/12/03 01:49:56;;;;;;;4.50;2.90;;;;;;;19.48;48.11;101320.06;5094269;28;20368;-79
2022/12/03 01:52:28;;;;;;;4.20;2.58;;;;;;;19.47;48.25;101316.53;5095188;28;20048;-78
2022/12/03 01:54:58;;;;;;;9.55;3.08;;;;;;;19.46;48.21;101312.13;5095682;28;20125;-79
2022/12/03 01:57:28;;;;;;;5.47;3.15;;;;;;;19.47;48.30;101321.03;5095003;28;20052;-79
2022/12/03 01:59:57;;;;;;;3.95;2.80;;;;;;;19.45;48.36;101313.13;5095339;28;20044;-78
2022/12/03 02:02:28;;;;;;;4.40;2.83;;;;;;;19.46;48.21;101313.97;5095315;28;20044;-79
2022/12/03 02:04:56;;;;;;;4.03;2.85;;;;;;;19.46;48.15;101311.28;5095202;28;20071;-79
2022/12/03 02:07:26;;;;;;;3.75;2.70;;;;;;;19.45;48.43;101304.22;5095013;28;20040;-80
2022/12/03 02:09:55;;;;;;;3.95;2.47;;;;;;;19.46;48.37;101313.97;5094518;28;20490;-79
2022/12/03 02:12:47;;;;;;;4.60;2.92;;;;;;;19.45;48.27;101302.38;5095225;28;20055;-79
2022/12/03 02:15:15;;;;;;;4.45;3.15;;;;;;;19.44;48.50;101299.78;5095244;28;20048;-79
2022/12/03 02:17:43;;;;;;;4.25;2.85;;;;;;;19.44;48.42;101299.78;5094707;28;20044;-78
2022/12/03 02:20:11;;;;;;;4.70;2.50;;;;;;;19.44;48.35;101300.66;5094697;28;20405;-79
2022/12/03 02:22:58;;;;;;;4.70;3.08;;;;;;;19.44;48.35;101299.78;5094758;28;20048;-79
2022/12/03 02:25:31;;;;;;;5.07;3.03;;;;;;;19.43;48.36;101292.72;5093622;28;20055;-79
2022/12/03 02:28:00;;;;;;;5.88;3.05;;;;;;;19.43;48.39;101290.03;5094250;28;20055;-79
2022/12/03 02:30:29;;;;;;;4.63;2.45;;;;;;;19.44;48.35;101289.06;5094540;28;20048;-79
2022/12/03 02:32:57;;;;;;;3.22;2.30;;;;;;;19.43;48.35;101284.66;5094268;28;20052;-79
2022/12/03 02:35:28;;;;;;;4.00;2.47;;;;;;;19.43;48.44;101282.84;5094572;28;20051;-79
2022/12/03 02:38:05;;;;;;;5.03;2.90;;;;;;;19.43;48.37;101282.00;5094304;28;20044;-79
2022/12/03 02:40:33;;;;;;;3.95;2.55;;;;;;;19.42;48.07;101281.13;5095470;28;20494;-78
2022/12/03 02:43:02;;;;;;;5.40;3.25;;;;;;;19.42;48.29;101273.09;5094345;28;20044;-79
2022/12/03 02:45:33;;;;;;;5.00;3.33;;;;;;;19.42;48.45;101274.91;5094995;28;20051;-79
2022/12/03 02:48:17;;;;;;;2.90;2.20;;;;;;;19.42;48.23;101278.44;5095063;28;20387;-78
2022/12/03 02:50:52;;;;;;;3.53;2.28;;;;;;;19.42;48.53;101285.66;5093029;28;20044;-79
2022/12/03 02:53:43;;;;;;;4.22;3.05;;;;;;;19.42;48.37;101282.97;5094917;28;20541;-79
2022/12/03 02:56:13;;;;;;;3.88;2.10;;;;;;;19.41;48.47;101282.13;5098410;28;20052;-78
2022/12/03 02:58:43;;;;;;;4.00;2.75;;;;;;;19.42;48.62;101285.66;5098887;28;20044;-78
2022/12/03 03:01:11;;;;;;;3.35;2.45;;;;;;;19.41;48.62;101274.06;5098249;28;20059;-78
2022/12/03 03:03:40;;;;;;;4.45;2.97;;;;;;;19.40;48.85;101283.06;5098350;28;20044;-79
2022/12/03 03:06:08;;;;;;;3.70;2.63;;;;;;;19.42;48.58;101282.97;5098303;28;20043;-78
2022/12/03 03:08:37;;;;;;;4.28;2.70;;;;;;;19.41;48.57;101267.84;5097926;28;20051;-78
2022/12/03 03:11:05;;;;;;;4.55;3.05;;;;;;;19.40;48.59;101272.34;5095223;28;20517;-78
2022/12/03 03:13:34;;;;;;;4.32;2.72;;;;;;;19.41;48.70;101270.53;5096625;28;20040;-78
2022/12/03 03:16:04;;;;;;;4.55;2.50;;;;;;;19.40;48.76;101269.66;5097302;28;20044;-78
2022/12/03 03:18:32;;;;;;;3.75;2.67;;;;;;;19.39;48.80;101269.78;5095132;28;20052;-78
2022/12/03 03:21:00;;;;;;;4.25;2.92;;;;;;;19.39;48.84;101269.78;5097685;28;20391;-79
2022/12/03 03:23:28;;;;;;;3.05;2.30;;;;;;;19.40;49.14;101269.66;5098265;28;20036;-83
2022/12/03 03:26:06;;;;;;;4.35;2.47;;;;;;;19.40;48.97;101266.13;5097818;28;20048;-80
2022/12/03 03:28:37;;;;;;;5.13;2.55;;;;;;;19.40;49.23;101263.44;5098010;28;20044;-80
2022/12/03 03:31:06;;;;;;;6.35;2.55;;;;;;;19.40;49.25;101260.75;5097967;28;20055;-79
2022/12/03 03:33:37;;;;;;;4.68;2.80;;;;;;;19.39;48.97;101257.22;5097913;28;20522;-79
2022/12/03 03:36:06;;;;;;;3.85;2.40;;;;;;;19.39;49.38;101265.25;5098445;28;20051;-78
2022/12/03 03:38:34;;;;;;;3.08;2.47;;;;;;;19.39;49.51;101265.25;5097591;28;20052;-80
2022/12/03 03:41:04;;;;;;;5.05;2.58;;;;;;;19.39;49.14;101253.66;5096176;28;20052;-79
2022/12/03 03:43:34;;;;;;;4.78;2.47;;;;;;;19.39;49.42;101256.34;5097627;28;20048;-78
2022/12/03 03:46:04;;;;;;;3.80;2.42;;;;;;;19.38;49.31;101252.81;5095449;28;20413;-79
2022/12/03 03:48:33;;;;;;;5.35;2.88;;;;;;;19.37;49.21;101250.28;5096911;28;20044;-79
2022/12/03 03:51:07;;;;;;;5.65;2.58;;;;;;;19.37;49.22;101255.63;5096211;28;20055;-78
2022/12/03 03:53:41;;;;;;;4.05;2.65;;;;;;;19.37;49.08;101251.13;5097847;28;20044;-79
2022/12/03 03:56:09;;;;;;;4.65;3.00;;;;;;;19.37;49.31;101250.28;5097862;28;20047;-79
2022/12/03 03:58:37;;;;;;;6.38;2.67;;;;;;;19.36;49.28;101249.38;5097281;28;20044;-79
2022/12/03 04:01:05;;;;;;;3.70;2.88;;;;;;;19.36;49.26;101251.22;5097418;28;20040;-79
2022/12/03 04:03:33;;;;;;;4.25;2.63;;;;;;;19.36;49.25;101259.28;5096503;28;20039;-79
2022/12/03 04:06:00;;;;;;;4.25;2.72;;;;;;;19.35;49.35;101249.53;5096497;28;20055;-79
2022/12/03 04:08:28;;;;;;;3.58;2.42;;;;;;;19.35;49.31;101253.06;5096881;28;20380;-78
2022/12/03 04:13:41;;;;;;;4.30;2.45;;;;;;;19.35;49.39;101250.38;5097410;28;20042;-78
2022/12/03 04:16:09;;;;;;;3.65;2.45;;;;;;;19.35;49.39;101253.06;5096243;28;20391;-78
2022/12/03 04:18:42;;;;;;;4.65;2.28;;;;;;;19.35;49.38;101253.06;5096117;28;20051;-79
2022/12/03 04:23:57;;;;;;;3.17;2.33;;;;;;;19.35;49.21;101249.53;5096454;28;20040;-79
2022/12/03 04:29:13;;;;;;;3.33;2.40;;;;;;;19.36;49.53;101251.22;5097395;28;20043;-78
2022/12/03 04:37:13;;;;;;;3.08;2.30;;;;;;;19.35;49.70;101236.09;5096292;28;20070;-78
2022/12/03 04:39:41;;;;;;;3.47;2.42;;;;;;;19.35;49.64;101233.41;5095492;28;20060;-78
2022/12/03 04:42:08;;;;;;;3.53;2.58;;;;;;;19.34;49.49;101234.41;5096331;28;20462;-78
2022/12/03 04:44:36;;;;;;;3.60;2.42;;;;;;;19.34;49.55;101226.34;5096693;28;20047;-78
2022/12/03 04:47:15;;;;;;;3.33;2.47;;;;;;;19.35;49.51;101223.53;5095869;28;20047;-79
2022/12/03 04:49:45;;;;;;;4.20;2.67;;;;;;;19.34;49.67;101227.19;5096402;28;20040;-79
2022/12/03 04:52:15;;;;;;;3.20;2.17;;;;;;;19.33;49.64;101228.19;5096696;28;20055;-78
2022/12/03 04:54:42;;;;;;;4.78;2.75;;;;;;;19.34;49.67;101226.34;5096030;28;20040;-80
2022/12/03 04:57:10;;;;;;;3.28;2.35;;;;;;;19.33;49.85;101222.81;5096571;28;20051;-80
2022/12/03 04:59:38;;;;;;;3.42;2.35;;;;;;;19.33;49.77;101219.28;5093683;28;20052;-79
2022/12/03 05:02:06;;;;;;;9.07;2.75;;;;;;;19.33;49.86;101211.22;5095734;28;20052;-79
2022/12/03 05:04:33;;;;;;;3.40;2.60;;;;;;;19.33;49.86;101219.28;5095758;28;20499;-79
2022/12/03 05:07:01;;;;;;;3.78;2.70;;;;;;;19.33;49.67;101217.44;5095908;28;20048;-79
2022/12/03 05:09:28;;;;;;;2.60;1.92;;;;;;;19.34;49.78;101212.91;5096175;28;20048;-79
2022/12/03 05:11:55;;;;;;;3.72;2.22;;;;;;;19.34;49.78;101210.25;5096049;28;20048;-79
2022/12/03 05:14:23;;;;;;;3.88;2.60;;;;;;;19.32;49.90;101210.34;5093590;28;20048;-79
2022/12/03 05:16:50;;;;;;;2.97;2.30;;;;;;;19.33;49.76;101221.97;5095825;28;20040;-79
2022/12/03 05:19:17;;;;;;;3.67;2.47;;;;;;;19.32;49.84;101210.34;5095415;28;20515;-79
2022/12/03 05:21:45;;;;;;;3.30;2.50;;;;;;;19.32;49.61;101210.34;5094884;28;20051;-79
2022/12/03 05:24:13;;;;;;;3.30;2.35;;;;;;;19.32;49.85;101212.19;5095435;28;20036;-79
2022/12/03 05:26:41;;;;;;;4.53;2.47;;;;;;;19.32;49.70;101214.88;5095480;28;20055;-79
2022/12/03 05:29:08;;;;;;;3.70;2.60;;;;;;;19.31;49.81;101214.00;5095160;28;20044;-79
2022/12/03 05:31:35;;;;;;;3.15;2.25;;;;;;;19.32;49.74;101217.53;5094546;28;20052;-79
2022/12/03 05:34:03;;;;;;;3.65;2.80;;;;;;;19.31;49.77;101216.69;5095369;28;20406;-79
2022/12/03 05:36:30;;;;;;;3.63;2.80;;;;;;;19.32;49.79;101222.91;5094950;28;20066;-79
2022/12/03 05:38:58;;;;;;;4.15;2.58;;;;;;;19.32;49.71;101220.22;5095343;28;20387;-79
2022/12/03 05:44:11;;;;;;;5.93;2.40;;;;;;;19.31;49.79;101213.16;5095231;28;20048;-80
2022/12/03 05:46:46;;;;;;;3.95;2.83;;;;;;;19.31;49.61;101207.78;5095576;28;20102;-79
2022/12/03 05:49:13;;;;;;;3.10;2.13;;;;;;;19.31;49.36;101205.97;5093941;28;20114;-83
2022/12/03 05:51:42;;;;;;;3.13;2.20;;;;;;;19.31;49.80;101213.16;5094401;28;20040;-79
2022/12/03 05:54:09;;;;;;;3.97;2.67;;;;;;;19.31;49.79;101210.47;5094527;28;20055;-80
2022/12/03 05:56:36;;;;;;;3.97;2.65;;;;;;;19.32;49.87;101214.88;5093819;28;20495;-79
2022/12/03 05:59:04;;;;;;;3.25;2.50;;;;;;;19.31;49.73;101208.63;5094481;28;20506;-79
2022/12/03 06:01:31;;;;;;;4.63;2.67;;;;;;;19.31;49.47;101202.41;5094565;28;20044;-80
2022/12/03 06:03:58;;;;;;;4.25;2.15;;;;;;;19.30;49.85;101204.25;5094603;28;20051;-80
2022/12/03 06:06:26;;;;;;;3.20;2.13;;;;;;;19.30;49.77;101206.94;5094926;28;20047;-79
2022/12/03 06:08:53;;;;;;;3.92;2.50;;;;;;;19.31;49.87;101213.16;5094954;28;20040;-78
2022/12/03 06:11:21;;;;;;;5.93;2.80;;;;;;;19.31;49.91;101207.78;5094909;28;20510;-78
2022/12/03 06:13:48;;;;;;;3.10;2.17;;;;;;;19.31;49.85;101202.41;5093796;28;20056;-78
2022/12/03 06:16:16;;;;;;;3.25;2.30;;;;;;;19.30;50.19;101204.25;5095068;28;20040;-78
2022/12/03 06:18:43;;;;;;;4.43;3.38;;;;;;;19.30;50.03;101206.09;5093934;28;20052;-79
2022/12/03 06:21:10;;;;;;;3.75;2.35;;;;;;;19.30;50.02;101206.09;5095769;28;20074;-80
2022/12/03 06:23:43;;;;;;;4.05;2.58;;;;;;;19.30;49.94;101208.78;5094928;28;20044;-80
2022/12/03 06:26:11;;;;;;;4.40;2.67;;;;;;;19.29;49.83;101207.94;5094710;28;20044;-80
2022/12/03 06:28:39;;;;;;;3.83;2.40;;;;;;;19.29;49.99;101210.59;5098025;28;20044;-79
2022/12/03 06:31:07;;;;;;;4.20;2.85;;;;;;;19.30;49.92;101211.47;5098767;28;20055;-79
2022/12/03 06:33:34;;;;;;;4.30;2.75;;;;;;;19.29;49.72;101215.97;5098683;28;20044;-79
2022/12/03 06:36:01;;;;;;;4.32;2.90;;;;;;;19.28;49.66;101203.50;5097120;28;20051;-79
2022/12/03 06:38:29;;;;;;;5.25;3.08;;;;;;;19.29;49.70;101210.59;5098326;28;20056;-79
2022/12/03 06:40:56;;;;;;;4.18;2.40;;;;;;;19.27;49.92;101208.03;5098319;28;20055;-79
2022/12/03 06:43:23;;;;;;;6.03;2.53;;;;;;;19.27;49.80;101208.03;5097374;28;20426;-79
2022/12/03 06:45:51;;;;;;;3.40;2.38;;;;;;;19.29;50.02;101209.75;5096753;28;20036;-79
2022/12/03 06:48:19;;;;;;;4.05;2.85;;;;;;;19.27;49.80;101205.34;5098729;28;20055;-79
2022/12/03 06:50:46;;;;;;;5.18;2.50;;;;;;;19.27;49.85;101212.53;5098688;28;20048;-79
2022/12/03 06:53:13;;;;;;;3.50;2.50;;;;;;;19.27;49.80;101213.41;5097961;28;20048;-79
2022/12/03 06:55:41;;;;;;;3.70;2.28;;;;;;;19.26;49.60;101214.38;5099421;28;20040;-79
2022/12/03 06:58:08;;;;;;;3.47;2.60;;;;;;;19.25;49.55;101215.38;5099527;28;20051;-79
2022/12/03 07:00:35;;;;;;;3.03;2.17;;;;;;;19.26;49.64;101218.91;5098149;28;20052;-78
2022/12/03 07:03:03;;;;;;;3.40;2.53;;;;;;;19.26;49.79;101214.38;5098234;28;20044;-79
2022/12/03 07:05:31;;;;;;;3.75;2.70;;;;;;;19.26;49.43;101211.69;5098990;28;20467;-78
2022/12/03 07:07:58;;;;;;;3.20;2.30;;;;;;;19.26;49.53;101206.31;5097238;28;20071;-79
2022/12/03 07:10:25;;;;;;;5.00;2.58;;;;;;;19.26;49.62;101214.38;5096908;28;20043;-79
2022/12/03 07:12:53;;;;;;;4.55;2.75;;;;;;;19.27;49.59;101215.22;5096348;28;20407;-79
2022/12/03 07:15:20;;;;;;;4.15;2.63;;;;;;;19.26;49.63;101217.06;5098968;28;20051;-78
2022/12/03 07:17:47;;;;;;;3.35;2.38;;;;;;;19.25;49.58;101204.63;5097538;28;20044;-78
2022/12/03 07:20:15;;;;;;;3.25;2.35;;;;;;;19.26;49.67;101210.84;5097217;28;20044;-79
2022/12/03 07:22:42;;;;;;;3.45;2.35;;;;;;;19.26;49.63;101206.31;5097293;28;20048;-80
2022/12/03 07:25:11;;;;;;;4.00;2.33;;;;;;;19.26;49.72;101211.69;5097223;28;20399;-79
2022/12/03 07:27:41;;;;;;;4.25;2.58;;;;;;;19.26;49.72;101206.31;5097885;28;20036;-79
2022/12/03 07:30:12;;;;;;;3.05;2.15;;;;;;;19.26;49.55;101200.97;5097352;28;20051;-80
2022/12/03 07:32:39;;;;;;;2.80;2.08;;;;;;;19.26;49.53;101192.06;5097543;28;20408;-78
2022/12/03 07:35:08;;;;;;;3.65;2.58;;;;;;;19.25;49.82;101201.94;5097152;28;20051;-79
2022/12/03 07:37:35;;;;;;;3.47;2.45;;;;;;;19.25;49.51;101195.72;5097581;28;20048;-78
2022/12/03 07:40:04;;;;;;;3.42;2.40;;;;;;;19.25;49.55;101191.22;5096386;28;20056;-79
2022/12/03 07:42:31;;;;;;;3.60;2.55;;;;;;;19.25;49.64;101198.41;5095572;28;20052;-79
2022/12/03 07:44:58;;;;;;;3.40;2.42;;;;;;;19.25;49.76;101188.53;5097965;28;20051;-79
2022/12/03 07:47:26;;;;;;;3.40;2.45;;;;;;;19.25;49.82;101193.03;5097241;28;20054;-79
2022/12/03 07:49:53;;;;;;;3.08;2.25;;;;;;;19.24;49.76;101189.50;5097677;28;20047;-78
2022/12/03 07:52:20;;;;;;;3.90;2.53;;;;;;;19.24;49.74;101186.81;5097790;28;20073;-78
2022/12/03 07:54:48;;;;;;;3.22;2.38;;;;;;;19.25;49.59;101185.84;5096018;28;20483;-79
2022/12/03 07:57:15;;;;;;;3.28;2.47;;;;;;;19.24;49.57;101192.19;5097806;28;20040;-79
2022/12/03 07:59:42;;;;;;;3.50;2.35;;;;;;;19.24;49.70;101194.88;5097216;28;20055;-79
2022/12/03 08:02:10;;;;;;;3.50;2.22;;;;;;;19.24;49.88;101196.69;5097153;28;20048;-78
2022/12/03 08:04:37;;;;;;;3.58;2.53;;;;;;;19.23;49.71;101198.50;5097691;28;20429;-79
2022/12/03 08:07:05;;;;;;;3.88;2.40;;;;;;;19.23;49.73;101193.16;5096928;28;20040;-79
2022/12/03 08:09:32;;;;;;;2.80;2.00;;;;;;;19.23;49.68;101194.97;5096710;28;20047;-78
2022/12/03 08:12:05;;;;;;;4.20;2.80;;;;;;;19.24;49.61;101194.00;5095708;28;20063;-78
2022/12/03 08:14:32;;;;;;;3.72;2.78;;;;;;;19.23;49.57;101197.66;5097417;28;20040;-79
2022/12/03 08:17:00;;;;;;;3.33;2.67;;;;;;;19.24;49.55;101202.03;5095415;28;20044;-79
2022/12/03 08:19:27;;;;;;;3.60;2.70;;;;;;;19.23;49.70;101214.63;5097121;28;20036;-78
2022/12/03 08:21:54;;;;;;;3.97;2.65;;;;;;;19.22;49.43;101207.53;5097526;28;20056;-79
2022/12/03 08:24:29;;;;;;;3.63;2.40;;;;;;;19.22;49.69;101201.34;5094631;28;20059;-79
2022/12/03 08:26:56;;;;;;;3.72;2.80;;;;;;;19.21;49.31;101200.47;5096907;28;20372;-80
2022/12/03 08:29:24;;;;;;;3.60;2.30;;;;;;;19.23;49.48;101211.09;5096996;28;20040;-80
2022/12/03 08:31:55;;;;;;;2.97;2.17;;;;;;;19.22;49.94;101210.22;5096713;28;20047;-80
2022/12/03 08:34:26;;;;;;;3.58;2.50;;;;;;;19.24;49.65;101218.16;5097833;28;20051;-80
2022/12/03 08:37:11;;;;;;;3.63;2.33;;;;;;;19.22;49.69;101233.53;5096930;28;20051;-79
2022/12/03 08:39:45;;;;;;;2.88;2.25;;;;;;;19.23;49.94;101246.81;5094748;28;20537;-79
2022/12/03 08:45:17;;;;;;;3.50;2.45;;;;;;;19.22;49.59;101231.72;5096451;28;20054;-79
2022/12/03 08:47:44;;;;;;;3.25;2.50;;;;;;;19.22;49.74;101223.66;5095994;28;20044;-79
2022/12/03 08:50:34;;;;;;;4.03;2.90;;;;;;;19.22;49.71;101218.28;5093615;28;20059;-79
2022/12/03 08:53:10;;;;;;;3.47;2.47;;;;;;;19.23;49.55;101216.44;5095978;28;20054;-80
2022/12/03 08:55:44;;;;;;;3.17;2.45;;;;;;;19.22;49.80;101223.66;5096151;28;20510;-78
2022/12/03 08:58:32;;;;;;;3.88;2.22;;;;;;;19.23;49.70;101230.72;5096395;28;20052;-78
2022/12/03 09:01:21;;;;;;;3.00;2.17;;;;;;;19.22;49.80;101214.75;5096734;28;20055;-78
2022/12/03 09:04:17;;;;;;;3.55;2.72;;;;;;;19.23;49.57;101219.13;5094895;28;20047;-79
2022/12/03 09:06:44;;;;;;;4.68;2.70;;;;;;;19.21;49.77;101207.69;5093499;28;20044;-79
2022/12/03 09:09:11;;;;;;;5.40;2.97;;;;;;;19.21;49.94;101219.28;5094510;28;20062;-78
2022/12/03 09:11:39;;;;;;;7.20;2.78;;;;;;;19.22;50.22;101220.97;5094446;28;20051;-79
2022/12/03 09:14:06;;;;;;;4.65;2.42;;;;;;;19.22;50.18;101229.03;5092929;28;20048;-79
2022/12/03 09:16:33;;;;;;;6.32;4.72;;;;;;;19.19;48.82;101234.63;5093491;28;20122;-78
2022/12/03 09:19:01;;;;;;;6.38;3.22;;;;;;;19.18;49.57;101238.28;5095386;28;20055;-78
2022/12/03 09:21:28;;;;;;;5.03;2.75;;;;;;;19.19;50.10;101234.63;5095092;28;20048;-79
2022/12/03 09:23:56;;;;;;;3.15;2.30;;;;;;;19.19;50.36;101240.00;5095847;28;20048;-79
2022/12/03 09:26:23;;;;;;;3.35;2.50;;;;;;;19.20;50.39;101244.41;5095167;28;20055;-79
2022/12/03 09:28:51;;;;;;;3.50;2.47;;;;;;;19.20;50.51;101254.25;5094632;28;20047;-79
2022/12/03 09:31:18;;;;;;;3.42;2.17;;;;;;;19.21;50.27;101248.78;5095280;28;20052;-79
2022/12/03 09:33:45;;;;;;;3.33;2.05;;;;;;;19.21;50.51;101246.09;5095591;28;20062;-80
2022/12/03 09:36:13;;;;;;;5.25;2.50;;;;;;;19.21;50.23;101239.88;5094937;28;20044;-78
2022/12/03 09:38:40;;;;;;;5.43;2.38;;;;;;;19.21;50.07;101232.69;5095149;28;20070;-79
2022/12/03 09:41:14;;;;;;;5.05;3.88;;;;;;;19.21;49.58;101234.53;5094092;28;20393;-78
2022/12/03 09:43:42;;;;;;;5.57;4.35;;;;;;;19.18;48.70;101235.59;5095327;28;20044;-87
2022/12/03 09:46:29;;;;;;;6.82;5.32;;;;;;;19.16;48.08;101225.97;5095507;28;20036;-83
2022/12/03 09:48:57;;;;;;;7.00;5.40;;;;;;;19.14;47.88;101233.28;5095734;28;20051;-79
2022/12/03 09:51:30;;;;;;;6.50;4.70;;;;;;;19.12;47.64;101219.13;5093557;28;20044;-79
2022/12/03 09:53:58;;;;;;;;;;;;;;;19.12;48.12;101214.63;5093773;28;20491;-78
2022/12/03 09:56:25;;;;;;;8.75;5.15;;;;;;;19.11;48.26;101195.94;5095324;28;19920;-79
2022/12/03 09:58:53;;;;;;;7.97;5.60;;;;;;;19.10;47.07;101199.63;5095072;28;20044;-79
2022/12/03 10:01:21;;;;;;;6.00;5.00;;;;;;;19.05;46.91;101202.66;5095261;28;20048;-77
2022/12/03 10:03:50;;;;;;;7.72;5.05;;;;;;;19.02;47.32;101194.84;5099242;28;20057;-79
2022/12/03 10:06:22;;;;;;;21.45;5.45;;;;;;;19.01;47.63;101203.88;5098224;28;20060;-79
2022/12/03 10:08:53;;;;;;;4.95;3.38;;;;;;;19.02;48.69;101195.69;5098175;28;20056;-84
2022/12/03 10:11:23;;;;;;;3.97;3.15;;;;;;;19.05;48.91;101193.78;5098042;28;20040;-84
2022/12/03 10:13:55;;;;;;;5.20;3.13;;;;;;;19.07;48.87;101189.97;5098112;28;20055;-85
2022/12/03 10:16:24;;;;;;;4.13;3.30;;;;;;;19.08;48.90;101180.97;5096822;28;20090;-86
2022/12/03 10:18:54;;;;;;;5.43;2.88;;;;;;;19.09;48.87;101176.44;5080148;28;20055;-86
2022/12/03 10:21:26;;;;;;;4.70;3.20;;;;;;;19.10;49.05;101172.78;5099707;28;20055;-86
2022/12/03 10:24:21;;;;;;;6.13;3.30;;;;;;;19.11;48.91;101172.66;5097741;28;20060;-85
2022/12/03 10:26:51;;;;;;;4.50;2.85;;;;;;;19.11;49.09;101164.59;5097332;28;20048;-85
2022/12/03 10:29:33;;;;;;;5.57;2.80;;;;;;;19.12;48.99;101169.00;5098083;28;20056;-86
2022/12/03 10:32:02;;;;;;;4.70;2.80;;;;;;;19.13;49.08;101164.50;5099296;28;20048;-87
2022/12/03 10:34:40;;;;;;;4.40;2.42;;;;;;;19.13;49.07;101170.72;5098869;28;20051;-88
2022/12/03 10:37:13;;;;;;;8.15;2.95;;;;;;;19.13;49.09;101170.72;5098833;28;20483;-85
2022/12/03 10:40:10;;;;;;;6.00;2.45;;;;;;;19.15;49.11;101162.53;5097112;28;20048;-85
2022/12/03 10:42:39;;;;;;;4.70;2.67;;;;;;;19.15;49.16;101159.84;5096372;28;20056;-86
2022/12/03 10:45:18;;;;;;;4.10;2.63;;;;;;;19.16;49.22;101161.53;5097013;28;20048;-85
2022/12/03 10:48:03;;;;;;;4.70;2.70;;;;;;;19.14;49.24;101150.94;5096699;28;20055;-85
2022/12/03 10:50:31;;;;;;;4.60;2.75;;;;;;;19.19;49.30;101145.19;5098517;28;20043;-82
2022/12/03 10:52:58;;;;;;;5.10;2.50;;;;;;;19.22;49.33;101148.50;5095951;28;20055;-81
2022/12/03 10:55:29;;;;;;;6.15;3.25;;;;;;;19.22;48.14;101153.88;5098319;28;20048;-86
2022/12/03 10:57:56;;;;;;;6.90;5.25;;;;;;;19.14;46.16;101150.09;5098878;28;20051;-85
2022/12/03 11:00:24;;;;;;;6.65;6.00;;;;;;;18.97;45.51;101149.63;5097642;28;20044;-85
2022/12/03 11:02:51;;;;;;;6.90;5.70;;;;;;;18.77;45.72;101150.34;5097701;28;20039;-86
2022/12/03 11:05:26;;;;;;;6.47;5.70;;;;;;;18.68;46.24;101154.56;5097721;28;20514;-86
2022/12/03 11:07:55;;;;;;;8.80;4.90;;;;;;;18.68;47.08;101151.88;5098358;28;20044;-83
2022/12/03 11:10:23;;;;;;;4.15;3.30;;;;;;;18.71;47.82;101140.91;5096242;28;20048;-90
2022/12/03 11:13:28;;;;;;;8.30;3.85;;;;;;;18.77;48.38;101144.97;5094659;28;20064;-85
2022/12/03 11:15:55;;;;;;;4.25;2.83;;;;;;;18.82;48.54;101147.28;5097811;28;20044;-80
2022/12/03 11:18:36;;;;;;;4.10;3.15;;;;;;;18.84;48.67;101145.31;5097525;28;20040;-82
2022/12/03 11:21:13;;;;;;;5.15;3.72;;;;;;;18.86;48.62;101138.88;5098332;28;20479;-82
2022/12/03 11:23:43;;;;;;;3.85;2.80;;;;;;;18.88;48.40;101130.69;5097601;28;20044;-83
2022/12/03 11:26:35;;;;;;;3.33;2.63;;;;;;;18.90;48.83;101123.38;5097962;28;20051;-83
2022/12/03 11:29:03;;;;;;;3.33;2.22;;;;;;;18.93;48.66;101134.72;5097492;28;20059;-83
2022/12/03 11:31:47;;;;;;;4.43;2.67;;;;;;;18.93;48.58;101126.69;5097210;28;20058;-82
2022/12/03 11:34:17;;;;;;;;;;;;;;;18.95;48.61;101130.09;5097797;28;20044;-84
2022/12/03 11:37:09;;;;;;;3.40;2.67;;;;;;;18.96;48.67;101133.66;5097494;28;20291;-84
2022/12/03 11:39:48;;;;;;;4.72;2.75;;;;;;;18.97;48.65;101130.81;5097159;28;20056;-85
2022/12/03 11:42:24;;;;;;;3.25;2.55;;;;;;;18.97;48.52;101122.78;5095651;28;20048;-85
2022/12/03 11:45:04;;;;;;;3.75;2.47;;;;;;;18.98;48.76;101131.69;5096027;28;20048;-86
2022/12/03 11:47:58;;;;;;;3.20;2.38;;;;;;;18.98;48.67;101131.69;5094157;28;20036;-85
2022/12/03 11:50:30;;;;;;;3.55;2.55;;;;;;;18.99;48.57;101130.69;5013859;28;20061;-85
2022/12/03 11:53:19;;;;;;;3.40;2.47;;;;;;;18.99;48.65;101130.69;5015763;28;20501;-85
2022/12/03 11:55:58;;;;;;;3.50;2.08;;;;;;;19.00;48.60;101119.84;5015165;28;20513;-85
2022/12/03 11:58:31;;;;;;;6.68;2.55;;;;;;;19.01;48.52;101115.34;5015935;28;20041;-85
2022/12/03 12:01:01;;;;;;;2.78;2.10;;;;;;;19.00;48.64;101108.28;5014487;28;20050;-85